Nearby METAR Reports

 

KSNK - Snyder/Winston, Texas, USA
Distance from station: SSE 25mi, 41km
Updated: Thu, 04-Mar-2021 5:35am CST
Clear
Clear
 Wind from S
Wind: S 7 mph , 11 km/h
Temperature: 48°F , 9°C
Wind Chill: 45°F , 7°C
Dew Point: 32°F , 0°C
Humidity: 54%
Barometer: 30.03 inHg , 1016.9 hPa
Clouds: Clear
Visibility: 10 miles , 16 km
2021/03/04 11:35 KSNK 041135Z AUTO 19006KT 10SM CLR 09/00 A3003 RMK AO2 T00890002
KSWW - Sweetwater, Texas, USA
Distance from station: SE 56mi, 90km
Updated: Thu, 04-Mar-2021 5:35am CST
Clear
Clear
 Wind from S
Wind: S 12 mph , 19 km/h
Temperature: 55°F , 13°C
Dew Point: 36°F , 2°C
Humidity: 47%
Barometer: 30.05 inHg , 1017.6 hPa
Clouds: Clear
Visibility: 10 miles , 16 km
2021/03/04 11:35 KSWW 041135Z AUTO 19010KT 10SM CLR 13/02 A3005 RMK AO2 T01250015
 
KLBB - Lubbock, Texas, USA
Distance from station: NW 59mi, 94km
Updated: Thu, 04-Mar-2021 4:53am CST
Mostly cloudy
Mostly cloudy
 Wind from SW
Wind: SW 13 mph , 20 km/h
Temperature: 54°F , 12°C
Dew Point: 28°F , -2°C
Humidity: 38%
Barometer: 30.00 inHg , 1015.9 hPa
Clouds: Mostly cloudy
Visibility: 10 miles , 16 km
Cloud details: Mostly cloudy 13000 ft
2021/03/04 10:53 KLBB 041053Z 22011KT 10SM BKN130 12/M02 A3000 RMK AO2 SLP121 T01171017
KPVW - Plainview, Texas, USA
Distance from station: NNW 85mi, 137km
Updated: Thu, 04-Mar-2021 5:35am CST
Clear
Clear
 Wind from calm
Wind: Calm
Temperature: 39°F , 4°C
Dew Point: 18°F , -8°C
Humidity: 42%
Barometer: 30.00 inHg , 1015.9 hPa
Clouds: Clear
Visibility: 10 miles , 16 km
2021/03/04 11:35 KPVW 041135Z AUTO 00000KT 10SM CLR 04/M08 A3000 RMK AO2 T00401085
 
KDYS - Dyess Afb/Abilen, Texas, USA
Distance from station: ESE 88mi, 141km
Updated: Thu, 04-Mar-2021 4:56am CST
Overcast
Overcast
 Wind from S
Wind: S 12 mph , 19 km/h
Temperature: 55°F , 13°C
Dew Point: 32°F , 0°C
Humidity: 41%
Barometer: 30.00 inHg , 1015.9 hPa
Clouds: Overcast
Visibility: 10 miles , 16 km
Cloud details: Overcast 15000 ft
2021/03/04 10:56 KDYS 041056Z AUTO 18010KT 10SM OVC150 13/00 A3000 RMK AO2 SLP132 T01280002
KGNC - Seminole, Texas, USA
Distance from station: WSW 89mi, 144km
Updated: Thu, 04-Mar-2021 5:35am CST
Clear
Clear
 Wind from SSE
Wind: SSE 3 mph , 6 km/h
Temperature: 48°F , 9°C
Dew Point: 32°F , 0°C
Humidity: 54%
Barometer: 30.04 inHg , 1017.3 hPa
Clouds: Clear
Visibility: 10 miles , 16 km
2021/03/04 11:35 KGNC 041135Z AUTO 16003KT 10SM CLR 09/00 A3004 RMK AO2 T00921001
 
KE11 - Andrews, Texas, USA
Distance from station: WSW 93mi, 149km
Updated: Thu, 04-Mar-2021 5:35am CST
Clear
Clear
 Wind from SSW
Wind: SSW 9 mph , 15 km/h
Temperature: 50°F , 10°C
Wind Chill: 46°F , 8°C
Dew Point: 32°F , 0°C
Humidity: 50%
Barometer: 30.01 inHg , 1016.3 hPa
Clouds: Clear
Visibility: 10 miles , 16 km
2021/03/04 11:35 KE11 041135Z AUTO 20008KT 10SM CLR 10/00 A3001 RMK AO2 T01020002
KABI - Abilene, Texas, USA
Distance from station: ESE 96mi, 154km
Updated: Thu, 04-Mar-2021 4:52am CST
Clear
Clear
 Wind from S
Wind: S 12 mph , 19 km/h
Temperature: 55°F , 13°C
Dew Point: 37°F , 3°C
Humidity: 51%
Barometer: 30.02 inHg , 1016.6 hPa
Clouds: Clear
Visibility: 10 miles , 16 km
2021/03/04 10:52 KABI 041052Z 18010KT 10SM CLR 13/03 A3002 RMK AO2 SLP149 T01280028
 
KMAF - Midland, Texas, USA
Distance from station: SW 96mi, 154km
Updated: Thu, 04-Mar-2021 4:53am CST
Clear
Clear
 Wind from S
Wind: S 6 mph , 9 km/h
Temperature: 48°F , 9°C
Wind Chill: 45°F , 7°C
Dew Point: 32°F , 0°C
Humidity: 54%
Barometer: 30.01 inHg , 1016.3 hPa
Clouds: Clear
Visibility: 10 miles , 16 km
2021/03/04 10:53 KMAF 041053Z AUTO 17005KT 10SM CLR 09/00 A3001 RMK AO2 SLP131 T00890000
KCDS - Childress, Texas, USA
Distance from station: NNE 110mi, 177km
Updated: Thu, 04-Mar-2021 4:53am CST
Clear
Clear
 Wind from calm
Wind: Calm
Temperature: 36°F , 2°C
Dew Point: 27°F , -3°C
Humidity: 70%
Barometer: 30.00 inHg , 1015.9 hPa
Clouds: Clear
Visibility: 10 miles , 16 km
2021/03/04 10:53 KCDS 041053Z AUTO 00000KT 10SM CLR 02/M03 A3000 RMK AO2 SLP152 T00171033
 
KSJT - San Angelo, Texas, USA
Distance from station: SSE 121mi, 194km
Updated: Thu, 04-Mar-2021 4:51am CST
Clear
Clear
 Wind from S
Wind: S 6 mph , 9 km/h
Temperature: 48°F , 9°C
Wind Chill: 45°F , 7°C
Dew Point: 36°F , 2°C
Humidity: 62%
Barometer: 30.03 inHg , 1016.9 hPa
Clouds: Clear
Visibility: 10 miles , 16 km
2021/03/04 10:51 KSJT 041051Z AUTO 18005KT 10SM CLR 09/02 A3003 RMK AO2 SLP160 T00940022
KHOB - Hobbs/Lea Co., New Mexico, USA
Distance from station: WSW 122mi, 196km
Updated: Thu, 04-Mar-2021 5:35am CST
Clear
Clear
 Wind from SSW
Wind: SSW 8 mph , 13 km/h
Temperature: 45°F , 7°C
Wind Chill: 41°F , 5°C
Dew Point: 28°F , -2°C
Humidity: 53%
Barometer: 30.00 inHg , 1015.9 hPa
Clouds: Clear
Visibility: 10 miles , 16 km
2021/03/04 11:35 KHOB 041135Z AUTO 20007KT 10SM CLR 07/M02 A3000 RMK AO2
 
KCOM - Coleman Muni, Texas, USA
Distance from station: SE 131mi, 212km
Updated: Thu, 04-Mar-2021 5:35am CST
Clear
Clear
 Wind from SSW
Wind: SSW 5 mph , 7 km/h
Temperature: 43°F , 6°C
Wind Chill: 40°F , 4°C
Dew Point: 36°F , 2°C
Humidity: 76%
Barometer: 30.07 inHg , 1018.3 hPa
Clouds: Clear
Visibility: 10 miles , 16 km
2021/03/04 11:35 KCOM 041135Z AUTO 20004KT 10SM CLR 06/02 A3007 RMK AO2 T00630020
KBKD - Breckenridge, Texas, USA
Distance from station: E 134mi, 215km
Updated: Thu, 04-Mar-2021 5:35am CST
Clear
Clear
 Wind from SSE
Wind: SSE 6 mph , 9 km/h
Temperature: 50°F , 10°C
Wind Chill: 48°F , 9°C
Dew Point: 39°F , 4°C
Humidity: 67%
Barometer: 30.04 inHg , 1017.3 hPa
Clouds: Clear
Visibility: 10 miles , 16 km
2021/03/04 11:35 KBKD 041135Z AUTO 16005KT 10SM CLR 10/04 A3004 RMK AO2 T00950040
 
KF05 - Vernon Wilbarger, Texas, USA
Distance from station: NE 137mi, 220km
Updated: Thu, 04-Mar-2021 5:35am CST
Clear
Clear
 Wind from calm
Wind: Calm
Temperature: 37°F , 3°C
Dew Point: 36°F , 2°C
Humidity: 93%
Barometer: 30.03 inHg , 1016.9 hPa
Clouds: Clear
Visibility: 10 miles , 16 km
2021/03/04 11:35 KF05 041135Z AUTO 00000KT 10SM CLR 03/02 A3003 RMK AO2 T00330018